createdAt,value
2018-06-21T00:02:20.216Z,9.33
2018-06-21T00:04:47.964Z,11.43
2018-06-21T00:07:16.040Z,10.83
2018-06-21T00:09:43.847Z,10.47
2018-06-21T00:12:11.882Z,10.33
2018-06-21T00:14:39.744Z,9.80
2018-06-21T00:17:07.595Z,10.60
2018-06-21T00:19:35.458Z,10.23
2018-06-21T00:22:03.323Z,10.27
2018-06-21T00:24:32.033Z,10.23
2018-06-21T00:27:00.723Z,10.90
2018-06-21T00:29:28.578Z,10.63
2018-06-21T00:31:57.058Z,10.10
2018-06-21T00:34:25.144Z,10.40
2018-06-21T00:36:52.984Z,10.83
2018-06-21T00:39:20.858Z,10.80
2018-06-21T00:41:48.815Z,11.87
2018-06-21T00:44:16.684Z,11.07
2018-06-21T00:46:44.584Z,10.80
2018-06-21T00:49:13.060Z,11.43
2018-06-21T00:51:42.312Z,11.63
2018-06-21T00:54:10.744Z,11.33
2018-06-21T00:56:39.328Z,11.40
2018-06-21T00:59:07.930Z,11.70
2018-06-21T01:01:35.732Z,11.07
2018-06-21T01:04:03.741Z,10.40
2018-06-21T01:06:33.292Z,11.97
2018-06-21T01:09:01.277Z,10.60
2018-06-21T01:11:29.180Z,10.30
2018-06-21T01:13:57.060Z,11.47
2018-06-21T01:16:24.990Z,11.63
2018-06-21T01:18:54.136Z,11.33
2018-06-21T01:21:22.310Z,10.53
2018-06-21T01:23:50.115Z,11.47
2018-06-21T01:26:18.467Z,12.20
2018-06-21T01:28:46.329Z,11.93
2018-06-21T01:31:14.140Z,11.47
2018-06-21T01:33:42.017Z,11.73
2018-06-21T01:36:10.876Z,12.10
2018-06-21T01:38:38.806Z,11.03
2018-06-21T01:41:07.066Z,11.33
2018-06-21T01:43:34.824Z,11.50
2018-06-21T01:46:02.728Z,11.43
2018-06-21T01:48:30.829Z,11.60
2018-06-21T01:50:59.540Z,11.40
2018-06-21T01:53:28.042Z,11.33
2018-06-21T01:55:55.956Z,12.20
2018-06-21T01:58:23.769Z,11.70
2018-06-21T02:00:52.244Z,12.07
2018-06-21T02:03:20.922Z,11.93
2018-06-21T02:05:49.692Z,11.83
2018-06-21T02:08:18.377Z,11.47
2018-06-21T02:10:46.344Z,12.70
2018-06-21T02:13:14.332Z,12.47
2018-06-21T02:15:42.156Z,11.50
2018-06-21T02:18:10.038Z,11.63
2018-06-21T02:20:37.940Z,11.53
2018-06-21T02:23:06.482Z,10.80
2018-06-21T02:25:34.754Z,11.13
2018-06-21T02:28:03.413Z,10.60
2018-06-21T02:30:31.748Z,11.33
2018-06-21T02:33:00.185Z,10.57
2018-06-21T02:35:28.076Z,11.30
2018-06-21T02:37:56.205Z,11.13
2018-06-21T02:40:24.526Z,11.83
2018-06-21T02:42:52.365Z,9.83
2018-06-21T02:45:21.336Z,10.60
2018-06-21T02:47:49.350Z,10.80
2018-06-21T02:50:18.028Z,10.50
2018-06-21T02:52:45.900Z,10.97
2018-06-21T02:55:13.768Z,10.80
2018-06-21T02:57:41.682Z,10.60
2018-06-21T03:00:10.467Z,10.87
2018-06-21T03:02:38.331Z,10.20
2018-06-21T03:05:06.932Z,10.77
2018-06-21T03:07:35.560Z,10.53
2018-06-21T03:10:04.211Z,11.53
2018-06-21T03:12:31.953Z,10.20
2018-06-21T03:15:00.238Z,10.30
2018-06-21T03:17:28.196Z,9.87
2018-06-21T03:19:56.137Z,9.93
2018-06-21T03:22:24.047Z,10.40
2018-06-21T03:24:53.099Z,9.60
2018-06-21T03:27:20.989Z,9.37
2018-06-21T03:29:48.753Z,9.77
2018-06-21T03:32:16.889Z,9.30
2018-06-21T03:34:45.539Z,8.73
2018-06-21T03:37:13.412Z,8.77
2018-06-21T03:39:41.917Z,7.80
2018-06-21T03:42:09.807Z,8.30
2018-06-21T03:44:37.638Z,8.20
2018-06-21T03:47:05.575Z,8.33
2018-06-21T03:49:34.349Z,7.60
2018-06-21T03:52:03.064Z,7.47
2018-06-21T03:54:30.782Z,7.73
2018-06-21T03:56:59.962Z,7.70
2018-06-21T03:59:28.605Z,7.20
2018-06-21T04:01:56.652Z,7.47
2018-06-21T04:04:24.520Z,6.97
2018-06-21T04:06:52.436Z,7.20
2018-06-21T04:09:20.384Z,6.53
2018-06-21T04:11:48.317Z,7.30
2018-06-21T04:14:16.316Z,7.35
2018-06-21T04:16:45.312Z,6.53
2018-06-21T04:19:13.572Z,6.92
2018-06-21T04:21:41.388Z,7.05
2018-06-21T04:24:10.585Z,6.30
2018-06-21T04:26:40.050Z,6.67
2018-06-21T04:29:08.636Z,6.45
2018-06-21T04:31:37.819Z,6.53
2018-06-21T04:34:05.736Z,7.08
2018-06-21T04:36:34.501Z,7.22
2018-06-21T04:39:03.441Z,6.75
2018-06-21T04:41:31.364Z,7.00
2018-06-21T04:43:59.112Z,6.22
2018-06-21T04:46:26.990Z,6.58
2018-06-21T04:48:56.425Z,6.58
2018-06-21T04:51:24.149Z,6.92
2018-06-21T04:53:52.007Z,6.58
2018-06-21T04:56:19.988Z,6.80
2018-06-21T04:58:47.872Z,6.83
2018-06-21T05:01:15.717Z,6.65
2018-06-21T05:03:43.597Z,6.75
2018-06-21T05:06:11.511Z,6.47
2018-06-21T05:08:39.462Z,6.70
2018-06-21T05:11:07.216Z,7.00
2018-06-21T05:13:35.030Z,7.42
2018-06-21T05:16:03.484Z,6.45
2018-06-21T05:18:31.305Z,7.17
2018-06-21T05:20:59.096Z,6.75
2018-06-21T05:23:27.195Z,6.55
2018-06-21T05:25:55.202Z,6.90
2018-06-21T05:28:23.230Z,6.50
2018-06-21T05:30:51.072Z,6.37
2018-06-21T05:33:18.889Z,6.33
2018-06-21T05:35:46.855Z,6.30
2018-06-21T05:38:15.282Z,6.37
2018-06-21T05:40:43.574Z,6.10
2018-06-21T05:43:11.504Z,6.28
2018-06-21T05:45:40.740Z,6.30
2018-06-21T05:48:09.432Z,6.75
2018-06-21T05:50:37.174Z,6.53
2018-06-21T05:53:05.785Z,6.33
2018-06-21T05:55:34.423Z,6.40
2018-06-21T05:58:02.452Z,6.70
2018-06-21T06:00:30.581Z,6.50
2018-06-21T06:02:58.428Z,6.20
2018-06-21T06:05:26.362Z,7.33
2018-06-21T06:07:54.656Z,6.20
2018-06-21T06:10:23.093Z,6.33
2018-06-21T06:12:50.968Z,6.37
2018-06-21T06:15:18.824Z,6.25
2018-06-21T06:17:46.610Z,6.55
2018-06-21T06:20:14.564Z,5.80
2018-06-21T06:22:42.445Z,6.50
2018-06-21T06:25:10.318Z,7.60
2018-06-21T06:27:38.048Z,7.03
2018-06-21T06:30:06.562Z,6.65
2018-06-21T06:48:50.057Z,6.35
2018-06-21T06:51:17.976Z,6.33
2018-06-21T06:53:46.767Z,6.15
2018-06-21T06:56:14.740Z,5.75
2018-06-21T06:58:43.519Z,6.30
2018-06-21T07:01:11.586Z,5.60
2018-06-21T07:03:39.530Z,6.42
2018-06-21T07:06:08.125Z,5.50
2018-06-21T07:08:36.326Z,5.65
2018-06-21T07:11:04.315Z,5.90
2018-06-21T07:13:32.180Z,5.30
2018-06-21T07:16:00.060Z,5.55
2018-06-21T07:18:29.386Z,4.67
2018-06-21T07:20:58.422Z,4.37
2018-06-21T07:23:27.460Z,4.92
2018-06-21T07:25:55.361Z,4.30
2018-06-21T07:28:23.285Z,4.67
2018-06-21T07:30:51.111Z,4.42
2018-06-21T07:33:18.953Z,4.83
2018-06-21T07:35:48.551Z,4.10
2018-06-21T07:38:17.467Z,4.42
2018-06-21T07:40:45.908Z,4.15
2018-06-21T07:43:13.841Z,4.03
2018-06-21T07:45:42.564Z,4.33
2018-06-21T07:48:11.329Z,4.17
2018-06-21T07:50:39.206Z,4.33
2018-06-21T07:53:07.047Z,4.25
2018-06-21T07:55:34.935Z,3.80
2018-06-21T07:58:03.171Z,3.85
2018-06-21T08:00:31.189Z,4.00
2018-06-21T08:02:59.724Z,4.12
2018-06-21T08:05:28.588Z,4.30
2018-06-21T08:07:57.233Z,4.20
2018-06-21T08:10:25.180Z,3.95
2018-06-21T08:12:53.174Z,4.03
2018-06-21T08:31:36.974Z,4.12
2018-06-21T08:34:05.125Z,4.03
2018-06-21T08:36:33.316Z,4.00
2018-06-21T08:39:02.578Z,3.95
2018-06-21T08:41:34.320Z,4.10
2018-06-21T08:44:02.328Z,3.90
2018-06-21T08:46:30.488Z,4.03
2018-06-21T08:48:58.357Z,4.25
2018-06-21T08:51:26.786Z,3.47
2018-06-21T08:53:55.138Z,2.90
2018-06-21T08:56:23.127Z,3.62
2018-06-21T09:15:25.151Z,3.90
2018-06-21T09:18:28.680Z,3.70
2018-06-21T09:23:41.064Z,4.62
2018-06-21T09:26:08.932Z,3.80
2018-06-21T09:28:36.856Z,3.77
2018-06-21T09:31:04.576Z,4.17
2018-06-21T09:33:32.447Z,3.90
2018-06-21T09:36:00.364Z,3.90
2018-06-21T09:38:35.569Z,4.28
2018-06-21T09:41:08.525Z,4.45
2018-06-21T09:43:50.299Z,4.20
2018-06-21T09:46:15.463Z,3.98
2018-06-21T09:48:47.737Z,3.83
2018-06-21T09:51:15.689Z,4.15
2018-06-21T09:53:43.576Z,4.80
2018-06-21T09:56:11.969Z,4.22
2018-06-21T09:58:39.917Z,4.20
2018-06-21T10:01:07.810Z,4.65
2018-06-21T10:03:35.758Z,4.33
2018-06-21T10:06:03.726Z,4.05
2018-06-21T10:08:31.590Z,4.60
2018-06-21T10:10:59.536Z,4.45
2018-06-21T10:13:27.588Z,4.75
2018-06-21T10:15:55.528Z,3.92
2018-06-21T10:18:23.852Z,4.08
2018-06-21T10:20:52.097Z,3.77
2018-06-21T10:23:20.125Z,4.60
2018-06-21T10:25:48.796Z,3.83
2018-06-21T10:28:18.036Z,3.80
2018-06-21T10:30:46.936Z,5.55
2018-06-21T10:33:21.200Z,4.10
2018-06-21T10:35:53.757Z,3.67
2018-06-21T10:38:21.787Z,3.70
2018-06-21T10:40:49.791Z,4.12
2018-06-21T10:43:18.177Z,4.60
2018-06-21T10:45:47.109Z,4.47
2018-06-21T11:04:30.856Z,3.90
2018-06-21T11:06:59.924Z,3.87
2018-06-21T11:09:28.129Z,3.50
2018-06-21T11:11:56.619Z,3.67
2018-06-21T11:14:24.766Z,3.85
2018-06-21T11:29:52.617Z,3.62
2018-06-21T11:32:20.315Z,3.83
2018-06-21T11:34:48.237Z,4.20
2018-06-21T11:37:17.022Z,3.40
2018-06-21T11:39:44.921Z,3.50
2018-06-21T11:42:13.028Z,3.80
2018-06-21T11:44:41.038Z,3.67
2018-06-21T11:47:09.623Z,3.42
2018-06-21T11:49:37.548Z,3.67
2018-06-21T11:52:05.619Z,3.42
2018-06-21T11:54:34.298Z,9.00
2018-06-21T11:57:02.103Z,4.15
2018-06-21T11:59:30.693Z,3.80
2018-06-21T12:01:58.682Z,3.92
2018-06-21T12:04:26.546Z,3.55
2018-06-21T12:06:54.431Z,3.70
2018-06-21T12:09:22.251Z,3.47
2018-06-21T12:11:50.124Z,3.67
2018-06-21T12:14:18.432Z,3.30
2018-06-21T12:16:46.374Z,4.00
2018-06-21T12:19:14.229Z,4.08
2018-06-21T12:21:42.098Z,3.62
2018-06-21T12:24:09.967Z,3.72
2018-06-21T12:26:38.682Z,3.52
2018-06-21T12:29:06.453Z,3.85
2018-06-21T12:31:34.180Z,3.45
2018-06-21T12:34:03.093Z,3.40
2018-06-21T12:36:30.984Z,3.42
2018-06-21T12:38:58.820Z,3.75
2018-06-21T12:41:26.584Z,3.20
2018-06-21T12:43:54.470Z,3.20
2018-06-21T12:46:23.687Z,3.90
2018-06-21T12:48:51.594Z,3.65
2018-06-21T12:51:20.493Z,3.30
2018-06-21T12:56:41.383Z,3.47
2018-06-21T12:59:12.077Z,3.42
2018-06-21T13:01:39.996Z,3.58
2018-06-21T13:04:07.941Z,3.02
2018-06-21T13:06:35.748Z,3.20
2018-06-21T13:09:08.996Z,3.20
2018-06-21T13:12:47.220Z,3.20
2018-06-21T13:15:15.152Z,3.35
2018-06-21T13:17:43.032Z,3.83
2018-06-21T13:20:11.353Z,3.60
2018-06-21T13:22:39.421Z,3.92
2018-06-21T13:25:07.619Z,3.45
2018-06-21T13:27:35.442Z,3.37
2018-06-21T13:30:03.977Z,3.67
2018-06-21T13:32:31.898Z,3.40
2018-06-21T13:35:00.253Z,3.30
2018-06-21T13:37:28.178Z,3.22
2018-06-21T13:39:55.932Z,3.67
2018-06-21T13:42:24.198Z,3.50
2018-06-21T13:44:52.787Z,3.33
2018-06-21T13:47:21.194Z,3.40
2018-06-21T13:49:49.564Z,3.45
2018-06-21T13:52:17.853Z,4.22
2018-06-21T13:54:47.348Z,4.40
2018-06-21T13:57:15.265Z,4.03
2018-06-21T13:59:43.253Z,5.42
2018-06-21T14:02:11.124Z,6.70
2018-06-21T14:04:39.225Z,3.83
2018-06-21T14:07:07.092Z,6.22
2018-06-21T14:09:35.515Z,6.37
2018-06-21T14:12:04.192Z,5.70
2018-06-21T14:14:32.700Z,4.67
2018-06-21T14:17:00.484Z,4.95
2018-06-21T14:19:28.344Z,4.80
2018-06-21T14:21:56.250Z,4.47
2018-06-21T14:24:24.047Z,4.90
2018-06-21T14:26:52.052Z,5.20
2018-06-21T14:29:19.965Z,4.57
2018-06-21T14:31:47.880Z,5.73
2018-06-21T14:34:15.723Z,4.63
2018-06-21T14:36:44.158Z,6.10
2018-06-21T14:39:11.992Z,6.20
2018-06-21T14:41:39.926Z,5.40
2018-06-21T14:44:08.679Z,6.00
2018-06-21T14:46:36.480Z,6.53
2018-06-21T14:49:04.372Z,6.60
2018-06-21T14:51:32.159Z,6.43
2018-06-21T14:53:59.974Z,5.57
2018-06-21T14:56:28.741Z,6.00
2018-06-21T14:58:56.490Z,7.20
2018-06-21T15:01:24.310Z,7.30
2018-06-21T15:03:52.517Z,7.57
2018-06-21T15:06:22.923Z,6.97
2018-06-21T15:08:50.711Z,6.47
2018-06-21T15:11:19.696Z,6.63
2018-06-21T15:13:49.135Z,6.37
2018-06-21T15:16:18.665Z,7.00
2018-06-21T15:18:47.106Z,6.53
2018-06-21T15:21:15.274Z,6.57
2018-06-21T15:23:43.420Z,6.63
2018-06-21T15:26:11.775Z,6.23
2018-06-21T15:41:42.161Z,6.13
2018-06-21T15:44:10.241Z,3.83
2018-06-21T15:46:38.796Z,4.73
2018-06-21T15:49:06.800Z,3.30
2018-06-21T15:51:34.882Z,3.63
2018-06-21T15:54:02.722Z,3.27
2018-06-21T15:56:30.692Z,4.17
2018-06-21T15:59:00.293Z,5.23
2018-06-21T16:01:28.452Z,3.43
2018-06-21T16:03:56.361Z,3.33
2018-06-21T16:06:24.353Z,3.57
2018-06-21T16:08:52.322Z,2.30
2018-06-21T16:11:20.172Z,3.80
2018-06-21T16:13:48.088Z,4.20
2018-06-21T16:16:20.007Z,3.67
2018-06-21T16:31:53.044Z,3.80
2018-06-21T16:34:21.842Z,2.70
2018-06-21T16:36:49.697Z,2.13
2018-06-21T16:39:17.710Z,2.13
2018-06-21T16:41:45.884Z,1.60
2018-06-21T16:44:13.833Z,2.30
2018-06-21T16:46:41.788Z,2.27
2018-06-21T16:49:10.163Z,1.90
2018-06-21T16:51:40.559Z,1.53
2018-06-21T16:54:08.485Z,1.20
2018-06-21T16:56:36.339Z,1.40
2018-06-21T16:59:04.428Z,1.17
2018-06-21T17:01:33.060Z,1.20
2018-06-21T17:04:00.793Z,1.10
2018-06-21T17:06:28.784Z,1.03
2018-06-21T17:08:56.504Z,1.27
2018-06-21T17:11:24.393Z,0.90
2018-06-21T17:13:52.364Z,1.10
2018-06-21T17:16:20.486Z,1.20
2018-06-21T17:18:48.851Z,1.50
2018-06-21T17:21:16.640Z,1.10
2018-06-21T17:23:44.689Z,0.97
2018-06-21T17:26:12.513Z,0.73
2018-06-21T17:28:40.591Z,1.17
2018-06-21T17:31:09.097Z,1.20
2018-06-21T17:33:36.961Z,1.37
2018-06-21T17:36:05.243Z,0.70
2018-06-21T17:38:33.657Z,2.40
2018-06-21T17:41:01.775Z,1.07
2018-06-21T17:43:29.870Z,0.70
2018-06-21T17:45:58.238Z,1.10
2018-06-21T17:48:26.237Z,0.93
2018-06-21T17:50:54.205Z,0.70
2018-06-21T17:53:22.228Z,0.90
2018-06-21T17:55:50.261Z,1.00
2018-06-21T17:58:19.605Z,1.20
2018-06-21T18:00:47.588Z,1.53
2018-06-21T18:03:15.591Z,1.40
2018-06-21T18:05:43.537Z,1.37
2018-06-21T18:08:11.387Z,1.07
2018-06-21T18:10:39.446Z,1.50
2018-06-21T18:13:08.254Z,1.20
2018-06-21T18:15:36.132Z,1.20
2018-06-21T18:18:04.097Z,1.13
2018-06-21T18:20:32.462Z,1.43
2018-06-21T18:23:00.981Z,0.90
2018-06-21T18:25:28.866Z,1.07
2018-06-21T18:27:58.017Z,1.10
2018-06-21T18:30:25.973Z,1.00
2018-06-21T18:32:54.185Z,1.07
2018-06-21T18:35:22.109Z,0.80
2018-06-21T18:37:50.154Z,1.13
2018-06-21T18:40:17.856Z,1.07
2018-06-21T18:42:45.928Z,0.90
2018-06-21T18:45:13.765Z,0.97
2018-06-21T18:47:41.580Z,0.87
2018-06-21T18:50:15.906Z,1.17
2018-06-21T18:52:49.009Z,0.93
2018-06-21T18:55:17.968Z,1.00
2018-06-21T18:57:45.888Z,1.07
2018-06-21T19:00:14.077Z,0.80
2018-06-21T19:02:42.772Z,0.90
2018-06-21T19:05:10.841Z,1.10
2018-06-21T19:07:41.767Z,0.90
2018-06-21T19:10:16.401Z,1.40
2018-06-21T19:12:44.275Z,0.80
2018-06-21T19:15:12.909Z,1.00
2018-06-21T19:17:40.785Z,0.90
2018-06-21T19:20:09.126Z,0.80
2018-06-21T19:22:36.796Z,0.97
2018-06-21T19:25:05.573Z,0.97
2018-06-21T19:27:33.473Z,0.60
2018-06-21T19:32:49.826Z,0.57
2018-06-21T19:35:26.249Z,0.90
2018-06-21T19:37:55.549Z,1.10
2018-06-21T19:40:23.547Z,1.00
2018-06-21T19:42:58.366Z,0.90
2018-06-21T19:45:37.937Z,1.00
2018-06-21T19:48:06.582Z,1.03
2018-06-21T19:50:44.318Z,1.20
2018-06-21T19:53:14.918Z,1.40
2018-06-21T19:55:57.186Z,1.10
2018-06-21T19:58:24.896Z,1.10
2018-06-21T20:00:53.258Z,1.47
2018-06-21T20:03:21.539Z,1.17
2018-06-21T20:05:50.429Z,1.30
2018-06-21T20:08:19.403Z,1.00
2018-06-21T20:10:51.606Z,1.60
2018-06-21T20:13:19.563Z,1.03
2018-06-21T20:15:50.963Z,1.40
2018-06-21T20:31:19.411Z,1.53
2018-06-21T20:33:48.047Z,1.23
2018-06-21T20:36:29.784Z,1.33
2018-06-21T20:39:03.160Z,1.17
2018-06-21T20:41:36.296Z,1.20
2018-06-21T20:44:04.175Z,1.20
2018-06-21T20:46:33.541Z,1.20
2018-06-21T20:54:45.690Z,1.10
2018-06-21T21:32:59.957Z,1.47
2018-06-21T21:35:28.074Z,1.57
2018-06-21T21:37:56.206Z,1.70
2018-06-21T21:40:24.186Z,1.73
2018-06-21T21:42:52.129Z,1.20
2018-06-21T21:45:20.140Z,1.30
2018-06-21T21:47:49.704Z,1.20
2018-06-21T21:50:17.674Z,1.27
2018-06-21T21:52:45.483Z,1.53
2018-06-21T21:55:13.543Z,1.47
2018-06-21T21:57:42.616Z,1.40
2018-06-21T22:00:22.024Z,1.57
2018-06-21T22:02:50.813Z,1.60
2018-06-21T22:05:18.650Z,1.30
2018-06-21T22:07:46.514Z,1.20
2018-06-21T22:10:14.430Z,1.10
2018-06-21T22:12:42.352Z,1.60
2018-06-21T22:15:10.824Z,1.20
2018-06-21T22:17:38.592Z,1.50
2018-06-21T22:20:06.448Z,1.50
2018-06-21T22:22:35.074Z,1.57
2018-06-21T22:25:02.993Z,1.10
2018-06-21T22:27:31.029Z,1.50
2018-06-21T22:29:58.870Z,1.40
2018-06-21T22:32:26.949Z,1.10
2018-06-21T22:34:56.041Z,1.17
2018-06-21T22:37:23.871Z,1.20
2018-06-21T22:39:52.324Z,1.70
2018-06-21T22:42:20.006Z,1.93
2018-06-21T22:44:47.866Z,0.90
2018-06-21T22:47:23.001Z,1.53
2018-06-21T22:50:02.114Z,0.90
2018-06-21T22:52:41.142Z,1.07
2018-06-21T22:55:21.921Z,1.20
2018-06-21T22:58:02.315Z,1.00
2018-06-21T23:00:42.735Z,1.10
2018-06-21T23:03:22.176Z,0.87
2018-06-21T23:06:02.502Z,1.40
2018-06-21T23:08:35.702Z,1.07
2018-06-21T23:11:16.477Z,1.00
2018-06-21T23:14:00.473Z,0.80
2018-06-21T23:16:41.601Z,1.20
2018-06-21T23:19:21.869Z,1.33
2018-06-21T23:22:02.136Z,1.10
2018-06-21T23:24:41.926Z,0.90
2018-06-21T23:27:14.796Z,0.90
2018-06-21T23:29:43.210Z,1.37
2018-06-21T23:32:11.140Z,1.10
2018-06-21T23:34:39.585Z,0.93
2018-06-21T23:37:07.424Z,0.90
2018-06-21T23:39:35.382Z,0.90
2018-06-21T23:42:03.301Z,0.90
2018-06-21T23:44:31.241Z,1.50
2018-06-21T23:46:59.322Z,0.90
2018-06-21T23:49:27.270Z,1.20
2018-06-21T23:51:55.265Z,1.10
2018-06-21T23:54:23.268Z,1.00
2018-06-21T23:56:51.107Z,1.00
2018-06-21T23:59:19.051Z,1.10
